Terminal Aerodrome Forecast
Issued by NWS

Home | Current Version | Previous Version | Text Only | Print | Product List | Glossary On
Versions: 1 2 3 4 5 6 7 8 9 10 11 12 13 14
000
FTUS45 KREV 270158 AAA
TAFMMH
TAF AMD
KMMH 270158Z 2702/2724 21013G21KT P6SM FEW100
     FM270500 22007KT P6SM SKC
     FM271400 24017G29KT P6SM SCT150=

USA.gov is the U.S. government's official web portal to all federal, state and local government web resources and services.